Terminal Aerodrome Forecast
Issued by NWS Quad Cities IA IL

Home | Current Version | Previous Version | Text Only | Print | Product List | Glossary On
Versions: 1 2 3 4 5 6 7 8 9 10 11 12 13 14 15
000
FTUS43 KDVN 281100
TAFMLI
TAF
KMLI 281127Z 2812/2912 14005KT P6SM SCT040 SCT250
      TEMPO 2812/2813 4SM BR
     FM290900 VRB02KT 4SM BR SKC=

USA.gov is the U.S. government's official web portal to all federal, state and local government web resources and services.